KCNU/CNU METAR and TAF weather

Enter ICAO airport designator
Station Type Date Time Source
KCNU METAR 2018/10/21 03:52 UTC NOAA

KCNU 210352Z AUTO 02005KT 10SM CLR 09/01 A3037 RMK AO2 SLP283 T00890006


Station Type Date Time Source
KCNU Decoded METAR 2018/10/21 03:52 UTC NOAA

CHANUTE JOHNSON AIRPORT, KS, United States (KCNU) 37-40N 95-29W 297M
Oct 20, 2018 - 11:52 PM EDT / 2018.10.21 0352 UTC
Wind: from the NNE (020 degrees) at 6 MPH (5 KT):0
Visibility: 10 mile(s):0
Sky conditions: clear
Temperature: 48.0 F (8.9 C)
Dew Point: 33.1 F (0.6 C)
Relative Humidity: 55%
Pressure (altimeter): 30.37 in. Hg (1028 hPa)
ob: KCNU 210352Z AUTO 02005KT 10SM CLR 09/01 A3037 RMK AO2 SLP283 T00890006
cycle: 4

Station Type Date Time Source
KCNU TAF 2018/10/20 18:22 UTC NOAA

TAF KCNU 201720Z 2018/2118 34015KT P6SM SKC
FM202300 36005KT P6SM SKC
FM210900 06004KT P6SM SKC
FM211400 15006KT P6SM SKC


Example: see airport list